sensor_id;sensor_type;location;lat;lon;timestamp;P1;durP1;ratioP1;P2;durP2;ratioP2
4365;SDS011;2196;47.422;9.656;2022-11-11T00:00:31;9.43;;;7.63;;
4365;SDS011;2196;47.422;9.656;2022-11-11T00:02:58;9.23;;;8.13;;
4365;SDS011;2196;47.422;9.656;2022-11-11T00:05:26;8.03;;;7.13;;
4365;SDS011;2196;47.422;9.656;2022-11-11T00:07:53;6.97;;;6.37;;
4365;SDS011;2196;47.422;9.656;2022-11-11T00:10:23;8.10;;;7.33;;
4365;SDS011;2196;47.422;9.656;2022-11-11T00:12:50;8.63;;;7.13;;
4365;SDS011;2196;47.422;9.656;2022-11-11T00:15:18;8.77;;;7.73;;
4365;SDS011;2196;47.422;9.656;2022-11-11T00:17:46;10.57;;;7.43;;
4365;SDS011;2196;47.422;9.656;2022-11-11T00:20:30;9.00;;;8.10;;
4365;SDS011;2196;47.422;9.656;2022-11-11T00:23:18;7.77;;;6.83;;
4365;SDS011;2196;47.422;9.656;2022-11-11T00:26:04;8.07;;;7.17;;
4365;SDS011;2196;47.422;9.656;2022-11-11T00:28:31;8.47;;;6.53;;
4365;SDS011;2196;47.422;9.656;2022-11-11T00:31:02;7.53;;;6.93;;
4365;SDS011;2196;47.422;9.656;2022-11-11T00:33:31;11.23;;;7.13;;
4365;SDS011;2196;47.422;9.656;2022-11-11T00:35:58;7.77;;;6.43;;
4365;SDS011;2196;47.422;9.656;2022-11-11T00:38:25;9.47;;;6.80;;
4365;SDS011;2196;47.422;9.656;2022-11-11T00:41:10;7.03;;;6.40;;
4365;SDS011;2196;47.422;9.656;2022-11-11T00:43:38;8.33;;;6.60;;
4365;SDS011;2196;47.422;9.656;2022-11-11T00:46:05;8.07;;;6.57;;
4365;SDS011;2196;47.422;9.656;2022-11-11T00:48:51;5.80;;;5.33;;
4365;SDS011;2196;47.422;9.656;2022-11-11T00:51:36;7.13;;;6.30;;
4365;SDS011;2196;47.422;9.656;2022-11-11T00:54:04;6.50;;;5.90;;
4365;SDS011;2196;47.422;9.656;2022-11-11T00:56:32;5.53;;;5.13;;
4365;SDS011;2196;47.422;9.656;2022-11-11T00:59:00;6.40;;;5.83;;
4365;SDS011;2196;47.422;9.656;2022-11-11T01:01:27;5.70;;;5.20;;
4365;SDS011;2196;47.422;9.656;2022-11-11T01:03:56;6.40;;;5.73;;
4365;SDS011;2196;47.422;9.656;2022-11-11T01:06:23;6.93;;;6.40;;
4365;SDS011;2196;47.422;9.656;2022-11-11T01:08:51;6.93;;;6.33;;
4365;SDS011;2196;47.422;9.656;2022-11-11T01:11:19;7.70;;;7.00;;
4365;SDS011;2196;47.422;9.656;2022-11-11T01:13:48;6.43;;;5.93;;
4365;SDS011;2196;47.422;9.656;2022-11-11T01:16:16;6.50;;;5.80;;
4365;SDS011;2196;47.422;9.656;2022-11-11T01:18:44;6.43;;;5.73;;
4365;SDS011;2196;47.422;9.656;2022-11-11T01:21:14;6.70;;;6.07;;
4365;SDS011;2196;47.422;9.656;2022-11-11T01:23:42;5.73;;;5.30;;
4365;SDS011;2196;47.422;9.656;2022-11-11T01:26:12;5.80;;;5.40;;
4365;SDS011;2196;47.422;9.656;2022-11-11T01:28:40;4.90;;;4.60;;
4365;SDS011;2196;47.422;9.656;2022-11-11T01:31:09;5.10;;;4.80;;
4365;SDS011;2196;47.422;9.656;2022-11-11T01:33:38;4.60;;;4.30;;
4365;SDS011;2196;47.422;9.656;2022-11-11T01:36:06;5.60;;;5.13;;
4365;SDS011;2196;47.422;9.656;2022-11-11T01:38:36;4.83;;;4.43;;
4365;SDS011;2196;47.422;9.656;2022-11-11T01:41:06;4.53;;;4.23;;
4365;SDS011;2196;47.422;9.656;2022-11-11T01:43:53;6.43;;;4.83;;
4365;SDS011;2196;47.422;9.656;2022-11-11T01:46:26;5.17;;;4.07;;
4365;SDS011;2196;47.422;9.656;2022-11-11T01:48:58;4.83;;;4.47;;
4365;SDS011;2196;47.422;9.656;2022-11-11T01:51:48;4.57;;;4.23;;
4365;SDS011;2196;47.422;9.656;2022-11-11T01:54:23;3.93;;;3.60;;
4365;SDS011;2196;47.422;9.656;2022-11-11T01:56:57;6.33;;;4.23;;
4365;SDS011;2196;47.422;9.656;2022-11-11T01:59:27;4.67;;;4.37;;
4365;SDS011;2196;47.422;9.656;2022-11-11T02:01:57;4.73;;;4.43;;
4365;SDS011;2196;47.422;9.656;2022-11-11T02:04:25;4.70;;;4.03;;
4365;SDS011;2196;47.422;9.656;2022-11-11T02:07:09;3.63;;;3.43;;
4365;SDS011;2196;47.422;9.656;2022-11-11T02:09:40;3.67;;;3.40;;
4365;SDS011;2196;47.422;9.656;2022-11-11T02:12:10;3.47;;;3.27;;
4365;SDS011;2196;47.422;9.656;2022-11-11T02:14:56;4.60;;;3.77;;
4365;SDS011;2196;47.422;9.656;2022-11-11T02:17:25;4.63;;;4.33;;
4365;SDS011;2196;47.422;9.656;2022-11-11T02:19:55;5.27;;;4.77;;
4365;SDS011;2196;47.422;9.656;2022-11-11T02:22:27;4.37;;;4.17;;
4365;SDS011;2196;47.422;9.656;2022-11-11T02:25:01;5.30;;;4.77;;
4365;SDS011;2196;47.422;9.656;2022-11-11T02:27:31;4.43;;;4.13;;
4365;SDS011;2196;47.422;9.656;2022-11-11T02:30:02;4.93;;;4.60;;
4365;SDS011;2196;47.422;9.656;2022-11-11T02:32:31;4.87;;;4.47;;
4365;SDS011;2196;47.422;9.656;2022-11-11T02:34:58;3.90;;;3.70;;
4365;SDS011;2196;47.422;9.656;2022-11-11T02:37:25;5.13;;;4.00;;
4365;SDS011;2196;47.422;9.656;2022-11-11T02:39:53;4.43;;;4.13;;
4365;SDS011;2196;47.422;9.656;2022-11-11T02:42:26;3.93;;;3.73;;
4365;SDS011;2196;47.422;9.656;2022-11-11T02:44:54;3.80;;;3.50;;
4365;SDS011;2196;47.422;9.656;2022-11-11T02:47:23;4.67;;;3.50;;
4365;SDS011;2196;47.422;9.656;2022-11-11T02:49:51;3.93;;;3.73;;
4365;SDS011;2196;47.422;9.656;2022-11-11T02:52:18;4.60;;;4.30;;
4365;SDS011;2196;47.422;9.656;2022-11-11T02:54:45;4.20;;;3.33;;
4365;SDS011;2196;47.422;9.656;2022-11-11T02:57:13;3.83;;;3.63;;
4365;SDS011;2196;47.422;9.656;2022-11-11T02:59:42;4.53;;;3.57;;
4365;SDS011;2196;47.422;9.656;2022-11-11T03:02:09;4.77;;;4.47;;
4365;SDS011;2196;47.422;9.656;2022-11-11T03:04:36;3.53;;;3.30;;
4365;SDS011;2196;47.422;9.656;2022-11-11T03:07:03;3.83;;;3.57;;
4365;SDS011;2196;47.422;9.656;2022-11-11T03:09:30;3.77;;;3.47;;
4365;SDS011;2196;47.422;9.656;2022-11-11T03:11:57;3.30;;;3.10;;
4365;SDS011;2196;47.422;9.656;2022-11-11T03:14:24;3.60;;;3.40;;
4365;SDS011;2196;47.422;9.656;2022-11-11T03:16:53;3.67;;;3.40;;
4365;SDS011;2196;47.422;9.656;2022-11-11T03:19:37;3.77;;;3.57;;
4365;SDS011;2196;47.422;9.656;2022-11-11T03:22:04;4.37;;;4.07;;
4365;SDS011;2196;47.422;9.656;2022-11-11T03:24:30;3.03;;;2.93;;
4365;SDS011;2196;47.422;9.656;2022-11-11T03:27:11;3.50;;;3.30;;
4365;SDS011;2196;47.422;9.656;2022-11-11T03:29:38;4.70;;;4.40;;
4365;SDS011;2196;47.422;9.656;2022-11-11T03:32:07;4.20;;;3.90;;
4365;SDS011;2196;47.422;9.656;2022-11-11T03:34:34;4.40;;;4.07;;
4365;SDS011;2196;47.422;9.656;2022-11-11T03:37:01;4.07;;;3.77;;
4365;SDS011;2196;47.422;9.656;2022-11-11T03:39:47;4.73;;;3.53;;
4365;SDS011;2196;47.422;9.656;2022-11-11T03:42:14;3.73;;;3.53;;
4365;SDS011;2196;47.422;9.656;2022-11-11T03:44:41;4.70;;;4.27;;
4365;SDS011;2196;47.422;9.656;2022-11-11T03:47:09;4.60;;;4.17;;
4365;SDS011;2196;47.422;9.656;2022-11-11T03:49:36;4.10;;;3.80;;
4365;SDS011;2196;47.422;9.656;2022-11-11T03:52:03;4.07;;;3.80;;
4365;SDS011;2196;47.422;9.656;2022-11-11T03:54:30;4.90;;;4.57;;
4365;SDS011;2196;47.422;9.656;2022-11-11T03:56:57;4.27;;;3.87;;
4365;SDS011;2196;47.422;9.656;2022-11-11T03:59:38;4.40;;;4.00;;
4365;SDS011;2196;47.422;9.656;2022-11-11T04:02:12;4.23;;;3.93;;
4365;SDS011;2196;47.422;9.656;2022-11-11T04:04:59;5.43;;;3.73;;
4365;SDS011;2196;47.422;9.656;2022-11-11T04:07:43;4.77;;;3.93;;
4365;SDS011;2196;47.422;9.656;2022-11-11T04:10:27;5.03;;;4.53;;
4365;SDS011;2196;47.422;9.656;2022-11-11T04:12:55;4.03;;;3.70;;
4365;SDS011;2196;47.422;9.656;2022-11-11T04:15:42;4.03;;;3.50;;
4365;SDS011;2196;47.422;9.656;2022-11-11T04:18:27;5.50;;;4.87;;
4365;SDS011;2196;47.422;9.656;2022-11-11T04:21:12;5.53;;;4.90;;
4365;SDS011;2196;47.422;9.656;2022-11-11T04:23:56;3.97;;;3.60;;
4365;SDS011;2196;47.422;9.656;2022-11-11T04:26:23;6.23;;;3.93;;
4365;SDS011;2196;47.422;9.656;2022-11-11T04:28:49;5.57;;;3.67;;
4365;SDS011;2196;47.422;9.656;2022-11-11T04:31:34;5.73;;;4.27;;
4365;SDS011;2196;47.422;9.656;2022-11-11T04:34:02;5.13;;;3.47;;
4365;SDS011;2196;47.422;9.656;2022-11-11T04:36:28;3.27;;;3.07;;
4365;SDS011;2196;47.422;9.656;2022-11-11T04:38:55;5.37;;;3.57;;
4365;SDS011;2196;47.422;9.656;2022-11-11T04:41:40;3.93;;;3.50;;
4365;SDS011;2196;47.422;9.656;2022-11-11T04:44:07;3.67;;;2.67;;
4365;SDS011;2196;47.422;9.656;2022-11-11T04:46:51;4.57;;;3.33;;
4365;SDS011;2196;47.422;9.656;2022-11-11T04:49:24;3.03;;;2.63;;
4365;SDS011;2196;47.422;9.656;2022-11-11T04:51:51;2.90;;;2.73;;
4365;SDS011;2196;47.422;9.656;2022-11-11T04:54:35;3.07;;;2.80;;
4365;SDS011;2196;47.422;9.656;2022-11-11T04:57:23;3.03;;;2.83;;
4365;SDS011;2196;47.422;9.656;2022-11-11T04:59:49;3.30;;;3.00;;
4365;SDS011;2196;47.422;9.656;2022-11-11T05:02:16;2.50;;;2.30;;
4365;SDS011;2196;47.422;9.656;2022-11-11T05:05:02;2.90;;;2.70;;
4365;SDS011;2196;47.422;9.656;2022-11-11T05:07:29;3.00;;;2.80;;
4365;SDS011;2196;47.422;9.656;2022-11-11T05:10:13;3.87;;;3.07;;
4365;SDS011;2196;47.422;9.656;2022-11-11T05:12:41;7.13;;;3.73;;
4365;SDS011;2196;47.422;9.656;2022-11-11T05:15:08;3.50;;;3.17;;
4365;SDS011;2196;47.422;9.656;2022-11-11T05:17:53;3.97;;;3.67;;
4365;SDS011;2196;47.422;9.656;2022-11-11T05:20:35;7.03;;;4.43;;
4365;SDS011;2196;47.422;9.656;2022-11-11T05:23:19;5.03;;;4.13;;
4365;SDS011;2196;47.422;9.656;2022-11-11T05:25:46;4.03;;;3.70;;
4365;SDS011;2196;47.422;9.656;2022-11-11T05:28:12;5.30;;;4.13;;
4365;SDS011;2196;47.422;9.656;2022-11-11T05:30:39;5.30;;;4.90;;
4365;SDS011;2196;47.422;9.656;2022-11-11T05:33:07;6.40;;;5.73;;
4365;SDS011;2196;47.422;9.656;2022-11-11T05:35:35;5.43;;;4.83;;
4365;SDS011;2196;47.422;9.656;2022-11-11T05:38:02;5.13;;;4.73;;
4365;SDS011;2196;47.422;9.656;2022-11-11T05:40:47;6.57;;;5.97;;
4365;SDS011;2196;47.422;9.656;2022-11-11T05:43:14;6.00;;;5.00;;
4365;SDS011;2196;47.422;9.656;2022-11-11T05:45:41;5.60;;;4.57;;
4365;SDS011;2196;47.422;9.656;2022-11-11T05:48:08;4.07;;;3.77;;
4365;SDS011;2196;47.422;9.656;2022-11-11T05:50:36;5.07;;;4.63;;
4365;SDS011;2196;47.422;9.656;2022-11-11T05:53:06;5.00;;;4.50;;
4365;SDS011;2196;47.422;9.656;2022-11-11T05:55:33;5.67;;;4.80;;
4365;SDS011;2196;47.422;9.656;2022-11-11T05:58:00;4.23;;;3.83;;
4365;SDS011;2196;47.422;9.656;2022-11-11T06:00:27;3.30;;;3.10;;
4365;SDS011;2196;47.422;9.656;2022-11-11T06:02:54;4.07;;;3.78;;
4365;SDS011;2196;47.422;9.656;2022-11-11T06:05:28;4.47;;;4.18;;
4365;SDS011;2196;47.422;9.656;2022-11-11T06:07:56;4.80;;;4.37;;
4365;SDS011;2196;47.422;9.656;2022-11-11T06:10:23;5.73;;;5.20;;
4365;SDS011;2196;47.422;9.656;2022-11-11T06:12:56;6.43;;;5.80;;
4365;SDS011;2196;47.422;9.656;2022-11-11T06:15:34;5.87;;;5.30;;
4365;SDS011;2196;47.422;9.656;2022-11-11T06:18:02;7.87;;;7.23;;
4365;SDS011;2196;47.422;9.656;2022-11-11T06:20:30;9.17;;;7.80;;
4365;SDS011;2196;47.422;9.656;2022-11-11T06:23:01;14.63;;;10.90;;
4365;SDS011;2196;47.422;9.656;2022-11-11T06:25:29;11.77;;;10.13;;
4365;SDS011;2196;47.422;9.656;2022-11-11T06:28:14;11.13;;;8.40;;
4365;SDS011;2196;47.422;9.656;2022-11-11T06:30:42;12.30;;;9.57;;
4365;SDS011;2196;47.422;9.656;2022-11-11T06:33:10;6.77;;;6.17;;
4365;SDS011;2196;47.422;9.656;2022-11-11T06:35:38;6.67;;;6.07;;
4365;SDS011;2196;47.422;9.656;2022-11-11T06:38:07;7.63;;;6.93;;
4365;SDS011;2196;47.422;9.656;2022-11-11T06:40:34;8.13;;;6.93;;
4365;SDS011;2196;47.422;9.656;2022-11-11T06:43:00;7.90;;;7.30;;
4365;SDS011;2196;47.422;9.656;2022-11-11T06:45:29;6.70;;;6.20;;
4365;SDS011;2196;47.422;9.656;2022-11-11T06:47:57;8.67;;;7.87;;
4365;SDS011;2196;47.422;9.656;2022-11-11T06:50:24;7.30;;;6.70;;
4365;SDS011;2196;47.422;9.656;2022-11-11T06:52:53;8.27;;;7.57;;
4365;SDS011;2196;47.422;9.656;2022-11-11T06:55:21;5.63;;;5.17;;
4365;SDS011;2196;47.422;9.656;2022-11-11T06:57:48;6.00;;;5.47;;
4365;SDS011;2196;47.422;9.656;2022-11-11T07:00:15;4.83;;;4.53;;
4365;SDS011;2196;47.422;9.656;2022-11-11T07:02:43;5.20;;;4.83;;
4365;SDS011;2196;47.422;9.656;2022-11-11T07:05:11;5.83;;;5.33;;
4365;SDS011;2196;47.422;9.656;2022-11-11T07:07:38;5.73;;;5.10;;
4365;SDS011;2196;47.422;9.656;2022-11-11T07:10:07;4.50;;;4.10;;
4365;SDS011;2196;47.422;9.656;2022-11-11T07:12:39;5.80;;;5.30;;
4365;SDS011;2196;47.422;9.656;2022-11-11T07:15:07;6.63;;;6.00;;
4365;SDS011;2196;47.422;9.656;2022-11-11T07:17:35;8.47;;;7.43;;
4365;SDS011;2196;47.422;9.656;2022-11-11T07:20:02;11.17;;;7.40;;
4365;SDS011;2196;47.422;9.656;2022-11-11T07:22:30;11.03;;;9.17;;
4365;SDS011;2196;47.422;9.656;2022-11-11T07:25:00;10.73;;;9.50;;
4365;SDS011;2196;47.422;9.656;2022-11-11T07:27:28;9.77;;;8.87;;
4365;SDS011;2196;47.422;9.656;2022-11-11T07:29:56;10.10;;;8.83;;
4365;SDS011;2196;47.422;9.656;2022-11-11T07:32:24;10.57;;;9.27;;
4365;SDS011;2196;47.422;9.656;2022-11-11T07:34:51;12.07;;;9.23;;
4365;SDS011;2196;47.422;9.656;2022-11-11T07:37:18;11.27;;;8.53;;
4365;SDS011;2196;47.422;9.656;2022-11-11T07:39:45;9.57;;;8.57;;
4365;SDS011;2196;47.422;9.656;2022-11-11T07:42:12;9.03;;;8.20;;
4365;SDS011;2196;47.422;9.656;2022-11-11T07:44:39;9.80;;;8.90;;
4365;SDS011;2196;47.422;9.656;2022-11-11T07:47:08;10.07;;;8.57;;
4365;SDS011;2196;47.422;9.656;2022-11-11T07:49:35;16.03;;;9.00;;
4365;SDS011;2196;47.422;9.656;2022-11-11T07:52:02;10.77;;;8.07;;
4365;SDS011;2196;47.422;9.656;2022-11-11T07:54:30;7.80;;;7.00;;
4365;SDS011;2196;47.422;9.656;2022-11-11T07:56:57;8.53;;;6.63;;
4365;SDS011;2196;47.422;9.656;2022-11-11T07:59:24;9.03;;;6.77;;
4365;SDS011;2196;47.422;9.656;2022-11-11T08:01:51;8.27;;;7.23;;
4365;SDS011;2196;47.422;9.656;2022-11-11T08:04:22;8.23;;;7.43;;
4365;SDS011;2196;47.422;9.656;2022-11-11T08:06:50;11.87;;;7.53;;
4365;SDS011;2196;47.422;9.656;2022-11-11T08:09:17;9.40;;;7.50;;
4365;SDS011;2196;47.422;9.656;2022-11-11T08:11:47;8.23;;;7.33;;
4365;SDS011;2196;47.422;9.656;2022-11-11T08:14:32;9.40;;;8.43;;
4365;SDS011;2196;47.422;9.656;2022-11-11T08:16:59;16.13;;;9.03;;
4365;SDS011;2196;47.422;9.656;2022-11-11T08:19:27;10.77;;;8.07;;
4365;SDS011;2196;47.422;9.656;2022-11-11T08:21:54;13.87;;;8.33;;
4365;SDS011;2196;47.422;9.656;2022-11-11T08:24:21;9.33;;;7.80;;
4365;SDS011;2196;47.422;9.656;2022-11-11T08:26:48;9.07;;;7.00;;
4365;SDS011;2196;47.422;9.656;2022-11-11T08:29:21;10.30;;;8.27;;
4365;SDS011;2196;47.422;9.656;2022-11-11T08:31:48;13.40;;;8.37;;
4365;SDS011;2196;47.422;9.656;2022-11-11T08:34:20;11.57;;;7.00;;
4365;SDS011;2196;47.422;9.656;2022-11-11T08:36:49;9.63;;;6.73;;
4365;SDS011;2196;47.422;9.656;2022-11-11T08:39:17;7.43;;;6.60;;
4365;SDS011;2196;47.422;9.656;2022-11-11T08:41:44;8.17;;;6.40;;
4365;SDS011;2196;47.422;9.656;2022-11-11T08:44:11;7.23;;;6.20;;
4365;SDS011;2196;47.422;9.656;2022-11-11T08:46:38;6.87;;;6.17;;
4365;SDS011;2196;47.422;9.656;2022-11-11T08:49:05;7.30;;;6.13;;
4365;SDS011;2196;47.422;9.656;2022-11-11T08:51:32;6.87;;;5.83;;
4365;SDS011;2196;47.422;9.656;2022-11-11T08:54:01;6.67;;;5.43;;
4365;SDS011;2196;47.422;9.656;2022-11-11T08:56:28;7.17;;;4.93;;
4365;SDS011;2196;47.422;9.656;2022-11-11T08:58:55;6.60;;;5.57;;
4365;SDS011;2196;47.422;9.656;2022-11-11T09:01:22;6.50;;;5.77;;
4365;SDS011;2196;47.422;9.656;2022-11-11T09:03:49;6.20;;;5.53;;
4365;SDS011;2196;47.422;9.656;2022-11-11T09:06:16;6.50;;;5.90;;
4365;SDS011;2196;47.422;9.656;2022-11-11T09:08:43;6.90;;;5.73;;
4365;SDS011;2196;47.422;9.656;2022-11-11T09:11:12;6.63;;;5.97;;
4365;SDS011;2196;47.422;9.656;2022-11-11T09:13:39;6.33;;;5.70;;
4365;SDS011;2196;47.422;9.656;2022-11-11T09:16:06;5.60;;;5.03;;
4365;SDS011;2196;47.422;9.656;2022-11-11T09:18:34;6.13;;;5.53;;
4365;SDS011;2196;47.422;9.656;2022-11-11T09:21:01;5.33;;;4.93;;
4365;SDS011;2196;47.422;9.656;2022-11-11T09:23:28;5.90;;;5.03;;
4365;SDS011;2196;47.422;9.656;2022-11-11T09:25:55;6.07;;;5.30;;
4365;SDS011;2196;47.422;9.656;2022-11-11T09:28:29;7.43;;;5.60;;
4365;SDS011;2196;47.422;9.656;2022-11-11T09:30:58;7.47;;;5.00;;
4365;SDS011;2196;47.422;9.656;2022-11-11T09:33:25;6.47;;;5.50;;
4365;SDS011;2196;47.422;9.656;2022-11-11T09:35:52;5.77;;;5.27;;
4365;SDS011;2196;47.422;9.656;2022-11-11T09:38:19;6.03;;;5.63;;
4365;SDS011;2196;47.422;9.656;2022-11-11T09:40:51;5.73;;;5.23;;
4365;SDS011;2196;47.422;9.656;2022-11-11T09:43:35;7.90;;;6.17;;
4365;SDS011;2196;47.422;9.656;2022-11-11T09:49:13;7.63;;;6.23;;
4365;SDS011;2196;47.422;9.656;2022-11-11T09:52:02;6.53;;;6.03;;
4365;SDS011;2196;47.422;9.656;2022-11-11T09:54:39;7.07;;;6.47;;
4365;SDS011;2196;47.422;9.656;2022-11-11T09:57:11;8.10;;;7.23;;
4365;SDS011;2196;47.422;9.656;2022-11-11T09:59:46;6.73;;;6.13;;
4365;SDS011;2196;47.422;9.656;2022-11-11T10:02:18;9.70;;;7.17;;
4365;SDS011;2196;47.422;9.656;2022-11-11T10:04:54;7.27;;;6.17;;
4365;SDS011;2196;47.422;9.656;2022-11-11T10:07:27;5.70;;;5.20;;
4365;SDS011;2196;47.422;9.656;2022-11-11T10:10:03;6.80;;;6.17;;
4365;SDS011;2196;47.422;9.656;2022-11-11T10:12:38;7.43;;;6.73;;
4365;SDS011;2196;47.422;9.656;2022-11-11T10:15:13;8.63;;;7.27;;
4365;SDS011;2196;47.422;9.656;2022-11-11T10:17:44;8.17;;;7.47;;
4365;SDS011;2196;47.422;9.656;2022-11-11T10:20:21;8.67;;;7.90;;
4365;SDS011;2196;47.422;9.656;2022-11-11T10:22:52;8.00;;;7.37;;
4365;SDS011;2196;47.422;9.656;2022-11-11T10:25:26;7.67;;;7.07;;
4365;SDS011;2196;47.422;9.656;2022-11-11T10:27:54;6.83;;;6.23;;
4365;SDS011;2196;47.422;9.656;2022-11-11T10:30:26;8.07;;;6.70;;
4365;SDS011;2196;47.422;9.656;2022-11-11T10:32:56;7.57;;;6.80;;
4365;SDS011;2196;47.422;9.656;2022-11-11T10:35:27;8.83;;;7.17;;
4365;SDS011;2196;47.422;9.656;2022-11-11T10:37:58;9.40;;;7.73;;
4365;SDS011;2196;47.422;9.656;2022-11-11T10:40:34;10.13;;;7.60;;
4365;SDS011;2196;47.422;9.656;2022-11-11T10:43:20;7.97;;;7.23;;
4365;SDS011;2196;47.422;9.656;2022-11-11T10:45:52;7.73;;;6.93;;
4365;SDS011;2196;47.422;9.656;2022-11-11T10:48:28;8.90;;;7.47;;
4365;SDS011;2196;47.422;9.656;2022-11-11T10:51:02;10.23;;;8.05;;
4365;SDS011;2196;47.422;9.656;2022-11-11T10:53:33;7.37;;;6.67;;
4365;SDS011;2196;47.422;9.656;2022-11-11T10:56:06;8.83;;;7.20;;
4365;SDS011;2196;47.422;9.656;2022-11-11T10:58:40;10.63;;;7.63;;
4365;SDS011;2196;47.422;9.656;2022-11-11T11:01:16;9.23;;;8.33;;
4365;SDS011;2196;47.422;9.656;2022-11-11T11:03:48;8.60;;;7.70;;
4365;SDS011;2196;47.422;9.656;2022-11-11T11:06:21;10.37;;;7.93;;
4365;SDS011;2196;47.422;9.656;2022-11-11T11:08:53;10.73;;;7.67;;
4365;SDS011;2196;47.422;9.656;2022-11-11T11:11:25;9.47;;;7.70;;
4365;SDS011;2196;47.422;9.656;2022-11-11T11:13:57;9.07;;;8.00;;
4365;SDS011;2196;47.422;9.656;2022-11-11T11:16:29;8.77;;;7.87;;
4365;SDS011;2196;47.422;9.656;2022-11-11T11:19:15;8.00;;;7.27;;
4365;SDS011;2196;47.422;9.656;2022-11-11T11:21:50;9.70;;;8.33;;
4365;SDS011;2196;47.422;9.656;2022-11-11T11:24:23;9.40;;;8.30;;
4365;SDS011;2196;47.422;9.656;2022-11-11T11:26:52;9.80;;;8.10;;
4365;SDS011;2196;47.422;9.656;2022-11-11T11:29:24;10.77;;;8.17;;
4365;SDS011;2196;47.422;9.656;2022-11-11T11:31:55;9.63;;;7.23;;
4365;SDS011;2196;47.422;9.656;2022-11-11T11:34:43;9.87;;;8.87;;
4365;SDS011;2196;47.422;9.656;2022-11-11T11:37:12;9.13;;;8.33;;
4365;SDS011;2196;47.422;9.656;2022-11-11T11:39:39;9.73;;;8.50;;
4365;SDS011;2196;47.422;9.656;2022-11-11T11:42:07;10.27;;;8.03;;
4365;SDS011;2196;47.422;9.656;2022-11-11T11:44:51;10.10;;;8.07;;
4365;SDS011;2196;47.422;9.656;2022-11-11T11:47:25;8.87;;;7.97;;
4365;SDS011;2196;47.422;9.656;2022-11-11T11:50:10;10.17;;;9.23;;
4365;SDS011;2196;47.422;9.656;2022-11-11T11:52:50;8.45;;;7.65;;
4365;SDS011;2196;47.422;9.656;2022-11-11T11:55:26;9.40;;;8.27;;
4365;SDS011;2196;47.422;9.656;2022-11-11T11:58:00;8.37;;;7.50;;
4365;SDS011;2196;47.422;9.656;2022-11-11T12:00:40;9.40;;;8.30;;
4365;SDS011;2196;47.422;9.656;2022-11-11T12:03:32;11.53;;;8.33;;
4365;SDS011;2196;47.422;9.656;2022-11-11T12:06:21;11.00;;;9.37;;
4365;SDS011;2196;47.422;9.656;2022-11-11T12:08:58;11.63;;;10.00;;
4365;SDS011;2196;47.422;9.656;2022-11-11T12:11:34;9.83;;;8.83;;
4365;SDS011;2196;47.422;9.656;2022-11-11T12:14:11;9.53;;;8.27;;
4365;SDS011;2196;47.422;9.656;2022-11-11T12:16:59;11.27;;;8.90;;
4365;SDS011;2196;47.422;9.656;2022-11-11T12:19:38;10.17;;;9.07;;
4365;SDS011;2196;47.422;9.656;2022-11-11T12:22:19;11.67;;;9.67;;
4365;SDS011;2196;47.422;9.656;2022-11-11T12:25:00;13.87;;;9.20;;
4365;SDS011;2196;47.422;9.656;2022-11-11T12:27:38;12.80;;;9.20;;
4365;SDS011;2196;47.422;9.656;2022-11-11T12:30:14;11.93;;;9.93;;
4365;SDS011;2196;47.422;9.656;2022-11-11T12:32:55;12.00;;;9.60;;
4365;SDS011;2196;47.422;9.656;2022-11-11T12:35:51;13.27;;;9.23;;
4365;SDS011;2196;47.422;9.656;2022-11-11T12:41:26;13.97;;;10.40;;
4365;SDS011;2196;47.422;9.656;2022-11-11T12:44:06;13.33;;;10.33;;
4365;SDS011;2196;47.422;9.656;2022-11-11T12:46:48;15.10;;;10.53;;
4365;SDS011;2196;47.422;9.656;2022-11-11T12:49:28;10.63;;;9.03;;
4365;SDS011;2196;47.422;9.656;2022-11-11T12:52:14;13.47;;;9.87;;
4365;SDS011;2196;47.422;9.656;2022-11-11T12:54:57;12.70;;;10.10;;
4365;SDS011;2196;47.422;9.656;2022-11-11T12:57:40;12.83;;;9.97;;
4365;SDS011;2196;47.422;9.656;2022-11-11T13:00:14;13.27;;;9.73;;
4365;SDS011;2196;47.422;9.656;2022-11-11T13:02:53;14.60;;;11.17;;
4365;SDS011;2196;47.422;9.656;2022-11-11T13:05:33;15.27;;;10.87;;
4365;SDS011;2196;47.422;9.656;2022-11-11T13:08:09;17.27;;;10.87;;
4365;SDS011;2196;47.422;9.656;2022-11-11T13:10:54;13.70;;;10.70;;
4365;SDS011;2196;47.422;9.656;2022-11-11T13:13:30;18.90;;;12.50;;
4365;SDS011;2196;47.422;9.656;2022-11-11T13:16:07;16.40;;;9.63;;
4365;SDS011;2196;47.422;9.656;2022-11-11T13:18:38;14.10;;;10.17;;
4365;SDS011;2196;47.422;9.656;2022-11-11T13:21:14;17.07;;;11.50;;
4365;SDS011;2196;47.422;9.656;2022-11-11T13:23:47;15.83;;;10.87;;
4365;SDS011;2196;47.422;9.656;2022-11-11T13:26:21;15.93;;;10.90;;
4365;SDS011;2196;47.422;9.656;2022-11-11T13:28:57;17.73;;;11.53;;
4365;SDS011;2196;47.422;9.656;2022-11-11T13:31:39;16.27;;;11.07;;
4365;SDS011;2196;47.422;9.656;2022-11-11T13:34:09;14.80;;;11.63;;
4365;SDS011;2196;47.422;9.656;2022-11-11T13:36:41;15.70;;;11.60;;
4365;SDS011;2196;47.422;9.656;2022-11-11T13:39:20;15.73;;;12.30;;
4365;SDS011;2196;47.422;9.656;2022-11-11T13:41:54;14.67;;;10.37;;
4365;SDS011;2196;47.422;9.656;2022-11-11T13:44:23;15.60;;;12.30;;
4365;SDS011;2196;47.422;9.656;2022-11-11T13:46:58;21.50;;;12.47;;
4365;SDS011;2196;47.422;9.656;2022-11-11T13:49:29;14.40;;;10.47;;
4365;SDS011;2196;47.422;9.656;2022-11-11T13:52:01;14.07;;;11.20;;
4365;SDS011;2196;47.422;9.656;2022-11-11T13:54:32;17.23;;;12.10;;
4365;SDS011;2196;47.422;9.656;2022-11-11T13:57:02;16.47;;;11.13;;
4365;SDS011;2196;47.422;9.656;2022-11-11T13:59:33;15.63;;;11.40;;
4365;SDS011;2196;47.422;9.656;2022-11-11T14:02:23;13.63;;;11.70;;
4365;SDS011;2196;47.422;9.656;2022-11-11T14:07:52;18.40;;;11.53;;
4365;SDS011;2196;47.422;9.656;2022-11-11T14:10:48;13.77;;;9.97;;
4365;SDS011;2196;47.422;9.656;2022-11-11T14:16:12;15.73;;;11.53;;
4365;SDS011;2196;47.422;9.656;2022-11-11T14:19:26;13.90;;;10.03;;
4365;SDS011;2196;47.422;9.656;2022-11-11T14:21:57;15.73;;;11.10;;
4365;SDS011;2196;47.422;9.656;2022-11-11T14:24:28;17.60;;;13.07;;
4365;SDS011;2196;47.422;9.656;2022-11-11T14:27:02;15.83;;;11.20;;
4365;SDS011;2196;47.422;9.656;2022-11-11T14:29:46;18.83;;;13.27;;
4365;SDS011;2196;47.422;9.656;2022-11-11T14:32:21;18.77;;;11.43;;
4365;SDS011;2196;47.422;9.656;2022-11-11T14:35:15;18.23;;;12.80;;
4365;SDS011;2196;47.422;9.656;2022-11-11T14:37:56;12.53;;;10.47;;
4365;SDS011;2196;47.422;9.656;2022-11-11T14:40:31;16.87;;;11.37;;
4365;SDS011;2196;47.422;9.656;2022-11-11T14:43:00;15.33;;;11.33;;
4365;SDS011;2196;47.422;9.656;2022-11-11T14:46:04;11.97;;;10.27;;
4365;SDS011;2196;47.422;9.656;2022-11-11T14:48:48;13.20;;;10.50;;
4365;SDS011;2196;47.422;9.656;2022-11-11T14:54:20;13.57;;;10.83;;
4365;SDS011;2196;47.422;9.656;2022-11-11T14:57:09;13.53;;;10.20;;
4365;SDS011;2196;47.422;9.656;2022-11-11T14:59:47;16.27;;;11.87;;
4365;SDS011;2196;47.422;9.656;2022-11-11T15:02:23;14.60;;;9.87;;
4365;SDS011;2196;47.422;9.656;2022-11-11T15:04:56;18.03;;;12.00;;
4365;SDS011;2196;47.422;9.656;2022-11-11T15:07:26;13.97;;;11.97;;
4365;SDS011;2196;47.422;9.656;2022-11-11T15:10:18;14.30;;;11.00;;
4365;SDS011;2196;47.422;9.656;2022-11-11T15:15:48;16.67;;;9.53;;
4365;SDS011;2196;47.422;9.656;2022-11-11T15:18:28;12.67;;;9.97;;
4365;SDS011;2196;47.422;9.656;2022-11-11T15:21:32;12.50;;;10.50;;
4365;SDS011;2196;47.422;9.656;2022-11-11T15:24:04;18.67;;;10.73;;
4365;SDS011;2196;47.422;9.656;2022-11-11T15:26:48;13.10;;;10.43;;
4365;SDS011;2196;47.422;9.656;2022-11-11T15:29:26;16.90;;;11.43;;
4365;SDS011;2196;47.422;9.656;2022-11-11T15:32:13;17.67;;;11.97;;
4365;SDS011;2196;47.422;9.656;2022-11-11T15:34:50;15.93;;;12.17;;
4365;SDS011;2196;47.422;9.656;2022-11-11T15:37:23;18.17;;;11.73;;
4365;SDS011;2196;47.422;9.656;2022-11-11T15:39:53;15.13;;;12.20;;
4365;SDS011;2196;47.422;9.656;2022-11-11T15:42:25;19.63;;;12.37;;
4365;SDS011;2196;47.422;9.656;2022-11-11T15:44:55;14.67;;;11.60;;
4365;SDS011;2196;47.422;9.656;2022-11-11T15:47:26;14.93;;;11.50;;
4365;SDS011;2196;47.422;9.656;2022-11-11T15:49:54;20.33;;;14.03;;
4365;SDS011;2196;47.422;9.656;2022-11-11T15:52:25;16.37;;;13.07;;
4365;SDS011;2196;47.422;9.656;2022-11-11T15:54:55;18.30;;;13.17;;
4365;SDS011;2196;47.422;9.656;2022-11-11T15:57:27;27.70;;;20.13;;
4365;SDS011;2196;47.422;9.656;2022-11-11T15:59:55;25.90;;;19.87;;